Time;durP1;ratioP1;P1;durP2;ratioP2;P2;SDS_P1;SDS_P2;PMS_P1;PMS_P2;Temp;Humidity;BMP_temperature;BMP_pressure;BME280_temperature;BME280_humidity;BME280_pressure;Samples;Min_cycle;Max_cycle;Signal;HPM_P1;HPM_P2
2022/03/06 18:04:26;;;;;;;0.93;0.70;;;16.50;63.50;;;;;;2298624;62;30800;-83
2022/03/06 18:06:54;;;;;;;0.75;0.63;;;16.40;61.50;;;;;;2292761;62;30250;-88
2022/03/06 18:09:20;;;;;;;2.42;1.02;;;16.40;62.50;;;;;;2287115;62;29979;-85
2022/03/06 18:11:46;;;;;;;0.70;0.70;;;16.40;63.20;;;;;;2290888;62;30258;-76
2022/03/06 18:14:12;;;;;;;1.13;0.90;;;16.40;63.90;;;;;;2289827;62;30131;-77
2022/03/06 18:16:38;;;;;;;0.70;0.70;;;16.40;64.70;;;;;;2290171;62;30133;-77
2022/03/06 18:19:04;;;;;;;1.65;0.80;;;16.40;65.10;;;;;;2269518;62;30289;-78
2022/03/06 18:21:30;;;;;;;1.00;0.93;;;16.40;65.40;;;;;;2281402;62;31556;-77
2022/03/06 18:23:56;;;;;;;0.90;0.80;;;16.40;65.70;;;;;;2285115;62;30967;-76
2022/03/06 18:26:25;;;;;;;2.95;1.05;;;16.50;66.00;;;;;;2288607;62;30308;-78
2022/03/06 18:28:54;;;;;;;2.50;0.70;;;16.50;66.00;;;;;;2289542;62;30284;-79
2022/03/06 18:31:35;;;;;;;0.63;0.60;;;16.50;66.00;;;;;;2282369;62;30821;-77
2022/03/06 18:34:05;;;;;;;0.67;0.67;;;16.60;65.60;;;;;;2289497;62;31202;-83
2022/03/06 18:36:31;;;;;;;1.20;0.90;;;16.60;66.00;;;;;;2282742;62;30279;-77
2022/03/06 18:38:57;;;;;;;0.63;0.63;;;16.70;66.10;;;;;;2289892;62;30444;-77
2022/03/06 18:41:22;;;;;;;1.88;0.70;;;16.70;65.90;;;;;;2275279;62;30787;-78
2022/03/06 18:43:48;;;;;;;1.27;0.95;;;16.70;66.10;;;;;;2289664;62;32337;-77
2022/03/06 18:46:14;;;;;;;2.13;1.00;;;16.80;65.90;;;;;;2282586;62;30231;-77
2022/03/06 18:48:41;;;;;;;1.25;1.00;;;16.80;65.80;;;;;;2272356;62;32378;-77
2022/03/06 18:51:07;;;;;;;1.55;0.73;;;16.80;65.70;;;;;;2281812;62;30269;-79
2022/03/06 18:53:32;;;;;;;1.05;0.80;;;16.80;65.60;;;;;;2288756;62;30813;-73
2022/03/06 18:56:01;;;;;;;2.30;0.93;;;16.80;65.60;;;;;;2274751;62;30310;-73
2022/03/06 18:58:27;;;;;;;1.25;0.98;;;16.90;65.50;;;;;;2277286;62;30182;-73
2022/03/06 19:00:53;;;;;;;2.55;0.80;;;16.90;65.40;;;;;;2274769;62;31018;-73
2022/03/06 19:03:19;;;;;;;2.15;0.90;;;16.90;65.30;;;;;;2288503;62;30715;-74
2022/03/06 19:05:45;;;;;;;0.90;0.80;;;16.90;65.30;;;;;;2286380;62;30079;-74
2022/03/06 19:08:13;;;;;;;1.85;0.75;;;16.90;65.20;;;;;;2288898;62;31152;-78
2022/03/06 19:10:38;;;;;;;1.98;0.90;;;16.90;65.20;;;;;;2288880;62;30168;-78
2022/03/06 19:13:04;;;;;;;0.98;0.90;;;16.90;65.10;;;;;;2287937;62;30216;-75
2022/03/06 19:15:31;;;;;;;1.85;1.00;;;16.90;65.90;;;;;;2284893;62;30495;-73
2022/03/06 19:17:57;;;;;;;0.75;0.68;;;17.00;65.30;;;;;;2283772;62;30109;-76
2022/03/06 19:20:23;;;;;;;2.30;0.90;;;17.00;65.80;;;;;;2283138;62;30830;-75
2022/03/06 19:22:49;;;;;;;1.30;1.00;;;17.00;65.00;;;;;;2283405;62;30198;-75
2022/03/06 19:25:15;;;;;;;2.53;1.00;;;17.00;64.90;;;;;;2283579;62;30216;-76
2022/03/06 19:27:41;;;;;;;0.88;0.80;;;17.10;64.90;;;;;;2283991;62;30171;-74
2022/03/06 19:30:07;;;;;;;2.25;0.77;;;17.10;64.80;;;;;;2279403;62;30071;-75
2022/03/06 19:32:33;;;;;;;1.55;1.08;;;17.10;64.80;;;;;;2275825;62;30124;-74
2022/03/06 19:34:59;;;;;;;1.67;0.90;;;17.10;64.80;;;;;;2268550;62;30308;-75
2022/03/06 19:37:25;;;;;;;0.88;0.88;;;17.10;64.70;;;;;;2275730;62;30268;-75
2022/03/06 19:39:52;;;;;;;0.63;0.63;;;17.10;64.70;;;;;;2277682;62;30099;-74
2022/03/06 19:42:18;;;;;;;2.42;0.90;;;17.10;64.70;;;;;;2276500;62;30572;-75
2022/03/06 19:44:44;;;;;;;2.45;1.17;;;17.10;64.60;;;;;;2283762;62;30024;-78
2022/03/06 19:47:10;;;;;;;2.90;0.85;;;17.10;64.60;;;;;;2276631;62;30407;-76
2022/03/06 19:49:36;;;;;;;4.90;0.90;;;17.10;64.50;;;;;;2281804;62;30846;-75
2022/03/06 19:52:03;;;;;;;1.05;0.93;;;17.00;64.50;;;;;;2275590;62;30525;-75
2022/03/06 19:54:29;;;;;;;3.08;1.15;;;17.00;64.60;;;;;;2275782;62;29990;-79
2022/03/06 19:56:55;;;;;;;2.05;0.90;;;17.00;64.50;;;;;;2266258;62;30412;-79
2022/03/06 19:59:21;;;;;;;2.97;1.33;;;17.00;64.40;;;;;;2280553;62;30098;-81
2022/03/06 20:01:49;;;;;;;3.38;1.10;;;17.10;64.30;;;;;;2275351;62;35765;-81
2022/03/06 20:04:18;;;;;;;0.98;0.90;;;17.10;64.20;;;;;;2276479;62;30383;-79
2022/03/06 20:06:44;;;;;;;1.20;0.85;;;17.20;64.00;;;;;;2276432;62;30063;-77
2022/03/06 20:09:12;;;;;;;1.25;0.70;;;17.20;63.90;;;;;;2273190;62;30612;-77
2022/03/06 20:11:38;;;;;;;1.02;0.80;;;17.30;63.80;;;;;;2282944;62;30183;-77
2022/03/06 20:14:04;;;;;;;1.15;0.70;;;17.40;63.80;;;;;;2283727;62;29946;-78
2022/03/06 20:16:30;;;;;;;0.80;0.80;;;17.40;63.70;;;;;;2283944;62;30172;-80
2022/03/06 20:18:56;;;;;;;0.70;0.70;;;17.40;63.60;;;;;;2282772;62;30610;-79
2022/03/06 20:21:22;;;;;;;0.98;0.65;;;17.40;63.50;;;;;;2275307;62;30569;-78
2022/03/06 20:23:48;;;;;;;3.20;0.90;;;17.40;63.50;;;;;;2276969;62;30118;-79
2022/03/06 20:26:15;;;;;;;1.17;0.60;;;17.40;63.50;;;;;;2275525;62;30823;-79
2022/03/06 20:28:41;;;;;;;0.85;0.65;;;17.50;63.50;;;;;;2276262;62;30784;-79
2022/03/06 20:31:08;;;;;;;1.05;0.60;;;17.50;63.40;;;;;;2276224;62;30646;-79
2022/03/06 20:33:34;;;;;;;1.20;0.80;;;17.50;63.40;;;;;;2276047;62;29996;-80
2022/03/06 20:36:00;;;;;;;0.70;0.70;;;17.50;63.40;;;;;;2275517;62;30522;-79
2022/03/06 20:38:26;;;;;;;1.05;0.70;;;17.50;63.50;;;;;;2269150;62;30755;-78
2022/03/06 20:40:52;;;;;;;0.82;0.80;;;17.50;63.40;;;;;;2283399;62;30147;-77
2022/03/06 20:43:18;;;;;;;1.00;0.57;;;17.50;63.40;;;;;;2283526;62;30484;-76
2022/03/06 20:45:44;;;;;;;1.17;0.80;;;17.50;63.40;;;;;;2267617;62;30518;-84
2022/03/06 20:48:10;;;;;;;3.20;0.80;;;17.50;63.50;;;;;;2282613;62;30416;-80
2022/03/06 20:50:37;;;;;;;0.75;0.75;;;17.50;63.50;;;;;;2276150;62;30542;-78
2022/03/06 20:53:03;;;;;;;0.88;0.82;;;17.50;63.60;;;;;;2269407;62;30109;-80
2022/03/06 20:55:29;;;;;;;1.38;0.80;;;17.60;63.60;;;;;;2269059;62;30730;-81
2022/03/06 20:57:55;;;;;;;1.45;0.70;;;17.60;63.60;;;;;;2275687;62;30342;-79
2022/03/06 21:00:23;;;;;;;1.85;0.93;;;17.60;63.60;;;;;;2275473;62;29993;-80
2022/03/06 21:02:49;;;;;;;1.25;0.80;;;17.60;63.50;;;;;;2267529;62;30303;-82
2022/03/06 21:05:15;;;;;;;1.00;0.75;;;17.60;63.50;;;;;;2275870;62;31006;-78
2022/03/06 21:07:41;;;;;;;1.30;0.82;;;17.60;63.60;;;;;;2275250;62;30811;-77
2022/03/06 21:10:11;;;;;;;0.80;0.80;;;17.60;63.50;;;;;;2275116;62;30077;-80
2022/03/06 21:12:38;;;;;;;1.00;0.88;;;17.70;63.50;;;;;;2268110;62;30231;-77
2022/03/06 21:15:04;;;;;;;0.88;0.88;;;17.70;63.50;;;;;;2261794;62;30944;-78
2022/03/06 21:17:30;;;;;;;2.97;1.95;;;17.70;63.50;;;;;;2267596;62;30530;-78
2022/03/06 21:19:56;;;;;;;3.45;1.60;;;17.70;63.50;;;;;;2275272;62;30516;-79
2022/03/06 21:22:22;;;;;;;3.28;1.58;;;17.70;63.50;;;;;;2281385;62;30271;-79
2022/03/06 21:24:49;;;;;;;1.90;1.40;;;17.70;63.50;;;;;;2273974;62;30180;-77
2022/03/06 21:27:18;;;;;;;2.10;1.08;;;17.70;63.40;;;;;;2283076;62;30028;-75
2022/03/06 21:29:47;;;;;;;1.33;1.10;;;17.70;63.50;;;;;;2281978;62;30260;-76
2022/03/06 21:32:17;;;;;;;2.15;1.20;;;17.70;63.50;;;;;;2275783;62;30530;-76
2022/03/06 21:34:43;;;;;;;1.17;1.08;;;17.70;63.50;;;;;;2274637;62;32156;-76
2022/03/06 21:37:09;;;;;;;1.58;1.20;;;17.70;63.50;;;;;;2268601;62;30058;-76
2022/03/06 21:39:36;;;;;;;1.20;1.10;;;17.60;63.50;;;;;;2278562;62;30340;-78
2022/03/06 21:42:03;;;;;;;1.38;1.00;;;17.60;63.40;;;;;;2267583;62;30608;-78
2022/03/06 21:44:30;;;;;;;1.45;1.05;;;17.50;63.60;;;;;;2274721;62;30127;-76
2022/03/06 21:46:56;;;;;;;1.02;0.95;;;17.50;63.70;;;;;;2261077;62;31519;-83
2022/03/06 21:49:22;;;;;;;0.85;0.85;;;17.50;63.70;;;;;;2269307;62;30868;-85
2022/03/06 21:51:51;;;;;;;0.90;0.80;;;17.50;63.60;;;;;;2269491;62;30933;-81
2022/03/06 21:54:17;;;;;;;8.75;1.58;;;17.50;63.60;;;;;;2269164;62;29935;-81
2022/03/06 21:56:43;;;;;;;1.15;1.10;;;17.50;63.60;;;;;;2275731;62;30787;-80
2022/03/06 21:59:12;;;;;;;1.02;0.90;;;17.50;63.60;;;;;;2275465;62;30863;-81
2022/03/06 22:01:39;;;;;;;1.20;1.00;;;17.50;63.60;;;;;;2282369;62;30122;-83
2022/03/06 22:04:05;;;;;;;1.30;1.05;;;17.60;63.60;;;;;;2273253;62;30218;-77
2022/03/06 22:06:32;;;;;;;1.00;0.93;;;17.60;63.60;;;;;;2273995;62;30810;-78
2022/03/06 22:08:58;;;;;;;1.48;0.90;;;17.60;63.50;;;;;;2274671;62;30535;-77
2022/03/06 22:11:25;;;;;;;0.95;0.75;;;17.50;63.60;;;;;;2269653;62;30180;-82
2022/03/06 22:13:52;;;;;;;1.63;0.60;;;17.50;63.60;;;;;;2266610;62;30200;-78
2022/03/06 22:16:20;;;;;;;1.52;0.80;;;17.50;63.60;;;;;;2266343;62;30702;-79
2022/03/06 22:18:46;;;;;;;0.65;0.65;;;17.40;63.70;;;;;;2263488;62;30364;-78
2022/03/06 22:21:12;;;;;;;0.63;0.63;;;17.40;63.80;;;;;;2272565;62;30413;-77
2022/03/06 22:23:38;;;;;;;0.60;0.60;;;17.40;63.70;;;;;;2274057;62;30101;-76
2022/03/06 22:26:04;;;;;;;0.70;0.60;;;17.50;63.60;;;;;;2274593;62;30658;-75
2022/03/06 22:28:30;;;;;;;1.85;0.73;;;17.50;63.60;;;;;;2273548;62;30750;-87
2022/03/06 22:30:56;;;;;;;0.60;0.60;;;17.50;63.70;;;;;;2275062;62;30285;-81
2022/03/06 22:33:22;;;;;;;1.13;0.80;;;17.50;63.70;;;;;;2273387;62;30615;-85
2022/03/06 22:35:48;;;;;;;1.27;0.60;;;17.50;63.90;;;;;;2266588;62;31013;-85
2022/03/06 22:38:14;;;;;;;0.95;0.77;;;17.50;63.90;;;;;;2261628;62;30301;-84
2022/03/06 22:40:41;;;;;;;0.77;0.70;;;17.40;63.80;;;;;;2273676;62;30529;-81
2022/03/06 22:43:08;;;;;;;0.85;0.80;;;17.40;63.80;;;;;;2266206;62;30141;-79
2022/03/06 22:45:34;;;;;;;0.80;0.70;;;17.40;63.80;;;;;;2266273;62;30057;-81
2022/03/06 22:48:00;;;;;;;0.70;0.68;;;17.40;63.90;;;;;;2259364;62;30690;-81
2022/03/06 22:50:26;;;;;;;0.40;0.40;;;17.40;63.80;;;;;;2267671;62;30260;-80
2022/03/06 22:52:52;;;;;;;0.70;0.70;;;17.40;64.00;;;;;;2268327;62;30424;-81
2022/03/06 22:55:18;;;;;;;0.50;0.50;;;17.40;63.90;;;;;;2267250;62;30814;-80
2022/03/06 22:57:45;;;;;;;1.20;0.50;;;17.40;63.80;;;;;;2268487;62;30433;-79
2022/03/06 23:00:29;;;;;;;0.50;0.50;;;17.40;63.90;;;;;;2275339;62;30067;-75
